Time;durP1;ratioP1;P1;durP2;ratioP2;P2;SDS_P1;SDS_P2;PMS_P1;PMS_P2;Temp;Humidity;BMP_temperature;BMP_pressure;BME280_temperature;BME280_humidity;BME280_pressure;Samples;Min_cycle;Max_cycle;Signal;HPM_P1;HPM_P2
2023/10/30 00:01:28;;;;;;;;;;;18.00;76.70;;;;;;5037124;27;94309;-44
2023/10/30 00:03:53;;;;;;;;;;;18.00;76.80;;;;;;5040752;27;90324;-45
2023/10/30 00:06:19;;;;;;;;;;;18.00;76.80;;;;;;5035782;27;89632;-45
2023/10/30 00:08:44;;;;;;;;;;;18.00;76.90;;;;;;5038458;27;90166;-45
2023/10/30 00:11:10;;;;;;;;;;;17.90;76.90;;;;;;5034403;27;89474;-45
2023/10/30 00:13:35;;;;;;;;;;;17.90;77.00;;;;;;5040335;27;89363;-45
2023/10/30 00:16:01;;;;;;;;;;;17.90;77.00;;;;;;5041640;27;91270;-45
2023/10/30 00:18:28;;;;;;;;;;;17.90;76.90;;;;;;5041533;27;89672;-44
2023/10/30 00:20:53;;;;;;;;;;;17.90;77.00;;;;;;5042830;27;90316;-45
2023/10/30 00:23:19;;;;;;;;;;;17.90;77.00;;;;;;5034637;27;89997;-45
2023/10/30 00:25:44;;;;;;;;;;;17.90;77.00;;;;;;5039817;27;89486;-44
2023/10/30 00:28:10;;;;;;;;;;;17.90;77.00;;;;;;5035417;27;89638;-45
2023/10/30 00:30:36;;;;;;;;;;;17.80;77.10;;;;;;5039644;27;89567;-44
2023/10/30 00:33:01;;;;;;;;;;;17.80;77.00;;;;;;5041253;27;88851;-45
2023/10/30 00:35:27;;;;;;;;;;;17.80;77.00;;;;;;5039146;27;90303;-45
2023/10/30 00:37:52;;;;;;;;;;;17.80;76.90;;;;;;5036145;27;89399;-44
2023/10/30 00:40:19;;;;;;;;;;;17.80;77.00;;;;;;5036616;27;91712;-46
2023/10/30 00:42:44;;;;;;;;;;;17.80;77.00;;;;;;5033674;27;89590;-44
2023/10/30 00:45:10;;;;;;;;;;;17.80;77.10;;;;;;5039112;27;90514;-44
2023/10/30 00:47:38;;;;;;;;;;;17.80;77.10;;;;;;5041116;27;91268;-45
2023/10/30 00:50:04;;;;;;;;;;;17.80;77.10;;;;;;5043515;27;89639;-43
2023/10/30 00:52:30;;;;;;;;;;;17.80;77.10;;;;;;5043386;27;89052;-45
2023/10/30 00:54:55;;;;;;;;;;;17.80;77.20;;;;;;5040881;27;89255;-44
2023/10/30 00:57:22;;;;;;;;;;;17.80;77.20;;;;;;5043989;27;88543;-45
2023/10/30 00:59:48;;;;;;;;;;;17.70;77.10;;;;;;5042652;27;89686;-44
2023/10/30 01:02:13;;;;;;;;;;;17.80;77.20;;;;;;5037997;27;90614;-45
2023/10/30 01:04:39;;;;;;;;;;;17.80;77.20;;;;;;5039891;27;91512;-44
2023/10/30 01:07:04;;;;;;;;;;;17.70;77.10;;;;;;5041749;27;91096;-44
2023/10/30 01:09:30;;;;;;;;;;;17.70;77.20;;;;;;5038745;27;91858;-45
2023/10/30 01:11:55;;;;;;;;;;;17.70;77.10;;;;;;5038726;27;90311;-45
2023/10/30 01:14:21;;;;;;;;;;;17.70;77.20;;;;;;5037477;27;90159;-44
2023/10/30 01:16:49;;;;;;;;;;;17.70;77.00;;;;;;5041297;27;90317;-45
2023/10/30 01:19:14;;;;;;;;;;;17.70;77.00;;;;;;5044356;27;89143;-45
2023/10/30 01:21:40;;;;;;;;;;;17.70;77.00;;;;;;5044431;27;88731;-44
2023/10/30 01:24:06;;;;;;;;;;;17.70;77.20;;;;;;5041309;27;89774;-46
2023/10/30 01:26:31;;;;;;;;;;;17.70;77.10;;;;;;5038657;27;89583;-45
2023/10/30 01:28:57;;;;;;;;;;;17.70;77.20;;;;;;5030357;27;90637;-45
2023/10/30 01:31:27;;;;;;;;;;;17.60;77.20;;;;;;5028948;27;90482;-45
2023/10/30 01:33:56;;;;;;;;;;;17.70;77.20;;;;;;5027480;27;93711;-44
2023/10/30 01:36:21;;;;;;;;;;;17.70;77.20;;;;;;5034248;27;89436;-45
2023/10/30 01:38:47;;;;;;;;;;;17.60;77.10;;;;;;5033215;27;89494;-44
2023/10/30 01:41:12;;;;;;;;;;;17.70;77.20;;;;;;5042393;27;89892;-44
2023/10/30 01:43:38;;;;;;;;;;;17.60;77.30;;;;;;5038519;27;90018;-45
2023/10/30 01:46:05;;;;;;;;;;;17.60;77.30;;;;;;5010793;27;88915;-45
2023/10/30 01:48:32;;;;;;;;;;;17.60;77.20;;;;;;5036439;27;89918;-44
2023/10/30 01:50:59;;;;;;;;;;;17.60;77.20;;;;;;5045168;27;89668;-44
2023/10/30 01:53:24;;;;;;;;;;;17.60;77.30;;;;;;5036214;27;92012;-44
2023/10/30 01:55:51;;;;;;;;;;;17.60;77.30;;;;;;5044880;27;89446;-44
2023/10/30 01:58:17;;;;;;;;;;;17.60;77.20;;;;;;5037609;27;89475;-44
2023/10/30 02:00:43;;;;;;;;;;;17.60;77.30;;;;;;5040146;27;89504;-45
2023/10/30 02:03:09;;;;;;;;;;;17.60;77.10;;;;;;5039137;27;89542;-44
2023/10/30 02:05:34;;;;;;;;;;;17.60;77.10;;;;;;5039765;27;89521;-44
2023/10/30 02:08:00;;;;;;;;;;;17.60;77.10;;;;;;5034195;27;89414;-45
2023/10/30 02:10:26;;;;;;;;;;;17.60;77.20;;;;;;5029065;27;88568;-45
2023/10/30 02:12:52;;;;;;;;;;;17.60;77.40;;;;;;5036477;27;89478;-45
2023/10/30 02:15:17;;;;;;;;;;;17.60;77.30;;;;;;5039913;27;89892;-45
2023/10/30 02:17:43;;;;;;;;;;;17.60;77.30;;;;;;5037024;27;90972;-45
2023/10/30 02:20:10;;;;;;;;;;;17.60;77.20;;;;;;5023062;27;88888;-44
2023/10/30 02:22:36;;;;;;;;;;;17.50;77.30;;;;;;5037172;27;89618;-44
2023/10/30 02:25:01;;;;;;;;;;;17.50;77.40;;;;;;5039818;27;89420;-45
2023/10/30 02:27:26;;;;;;;;;;;17.60;77.30;;;;;;5036317;27;89374;-44
2023/10/30 02:29:52;;;;;;;;;;;17.50;77.40;;;;;;5037110;27;89434;-45
2023/10/30 02:32:17;;;;;;;;;;;17.50;77.40;;;;;;5039902;27;90109;-44
2023/10/30 02:34:43;;;;;;;;;;;17.50;77.30;;;;;;5039170;27;88895;-44
2023/10/30 02:37:09;;;;;;;;;;;17.50;77.40;;;;;;5036761;27;89823;-45
2023/10/30 02:39:34;;;;;;;;;;;17.50;77.10;;;;;;5040161;27;89871;-45
2023/10/30 02:42:01;;;;;;;;;;;17.50;77.40;;;;;;5023536;27;95135;-44
2023/10/30 02:44:28;;;;;;;;;;;17.50;77.50;;;;;;5042635;27;90964;-44
2023/10/30 02:46:54;;;;;;;;;;;17.50;77.50;;;;;;5041326;27;88823;-44
2023/10/30 02:49:19;;;;;;;;;;;17.50;77.40;;;;;;5040049;27;91130;-45
2023/10/30 02:51:45;;;;;;;;;;;17.50;77.40;;;;;;5042048;27;90023;-44
2023/10/30 02:54:10;;;;;;;;;;;17.40;77.30;;;;;;5039511;27;89648;-45
2023/10/30 02:56:36;;;;;;;;;;;17.40;77.50;;;;;;5039840;27;89579;-44
2023/10/30 02:59:01;;;;;;;;;;;17.40;77.70;;;;;;5040747;27;88983;-44
2023/10/30 03:01:28;;;;;;;;;;;17.40;77.50;;;;;;5037385;27;89520;-44
2023/10/30 03:03:54;;;;;;;;;;;17.40;77.50;;;;;;5045084;27;89930;-45
2023/10/30 03:06:20;;;;;;;;;;;17.40;77.60;;;;;;5043219;27;90531;-44
2023/10/30 03:08:45;;;;;;;;;;;17.40;77.50;;;;;;5044405;27;90717;-44
2023/10/30 03:11:11;;;;;;;;;;;17.40;77.60;;;;;;5041503;27;89421;-45
2023/10/30 03:13:36;;;;;;;;;;;17.40;77.60;;;;;;5040015;27;89400;-44
2023/10/30 03:16:02;;;;;;;;;;;17.40;77.50;;;;;;5050193;27;89963;-45
2023/10/30 03:18:28;;;;;;;;;;;17.40;77.60;;;;;;5035098;27;89360;-44
2023/10/30 03:20:54;;;;;;;;;;;17.40;77.60;;;;;;5036110;27;90169;-44
2023/10/30 03:23:20;;;;;;;;;;;17.40;77.70;;;;;;5040560;27;88742;-46
2023/10/30 03:25:46;;;;;;;;;;;17.40;77.70;;;;;;5043549;27;89625;-45
2023/10/30 03:28:11;;;;;;;;;;;17.40;77.60;;;;;;5039981;27;89302;-45
2023/10/30 03:30:37;;;;;;;;;;;17.40;77.70;;;;;;5036697;27;92614;-45
2023/10/30 03:33:03;;;;;;;;;;;17.40;77.70;;;;;;5044241;27;90311;-46
2023/10/30 03:35:29;;;;;;;;;;;17.30;77.80;;;;;;5037903;27;89549;-44
2023/10/30 03:37:55;;;;;;;;;;;17.40;77.50;;;;;;5036919;27;89041;-45
2023/10/30 03:40:20;;;;;;;;;;;17.40;77.60;;;;;;5033802;27;89916;-44
2023/10/30 03:42:45;;;;;;;;;;;17.40;77.60;;;;;;5036263;27;89923;-45
2023/10/30 03:45:11;;;;;;;;;;;17.40;77.50;;;;;;5043879;27;88835;-45
2023/10/30 03:47:36;;;;;;;;;;;17.30;77.60;;;;;;5038402;27;89591;-44
2023/10/30 03:50:02;;;;;;;;;;;17.40;77.70;;;;;;5040471;27;92314;-44
2023/10/30 03:52:28;;;;;;;;;;;17.30;77.60;;;;;;5038513;27;89981;-45
2023/10/30 03:54:53;;;;;;;;;;;17.30;77.60;;;;;;5036405;27;91149;-45
2023/10/30 03:57:19;;;;;;;;;;;17.30;77.60;;;;;;5036046;27;90311;-45
2023/10/30 03:59:44;;;;;;;;;;;17.30;77.70;;;;;;5037873;27;89594;-45
2023/10/30 04:02:10;;;;;;;;;;;17.40;77.60;;;;;;5036331;27;89114;-45
2023/10/30 04:04:36;;;;;;;;;;;17.40;77.60;;;;;;5041222;27;89752;-44
2023/10/30 04:07:02;;;;;;;;;;;17.30;77.50;;;;;;5040944;27;89687;-45
2023/10/30 04:09:28;;;;;;;;;;;17.30;77.60;;;;;;5040792;27;89880;-44
2023/10/30 04:11:54;;;;;;;;;;;17.30;77.50;;;;;;5037383;27;89333;-45
2023/10/30 04:14:19;;;;;;;;;;;17.30;77.60;;;;;;5040669;27;90491;-45
2023/10/30 04:16:45;;;;;;;;;;;17.30;77.60;;;;;;5047352;27;89581;-44
2023/10/30 04:19:10;;;;;;;;;;;17.30;77.50;;;;;;5041211;27;90317;-45
2023/10/30 04:21:36;;;;;;;;;;;17.30;77.50;;;;;;5038030;27;89571;-45
2023/10/30 04:24:02;;;;;;;;;;;17.30;77.60;;;;;;5042954;27;89833;-45
2023/10/30 04:26:27;;;;;;;;;;;17.30;78.40;;;;;;5027635;27;89510;-44
2023/10/30 04:28:53;;;;;;;;;;;17.30;77.70;;;;;;5041787;27;89980;-44
2023/10/30 04:31:18;;;;;;;;;;;17.30;77.70;;;;;;5035365;27;89556;-44
2023/10/30 04:33:44;;;;;;;;;;;17.30;77.70;;;;;;5034144;27;90128;-45
2023/10/30 04:36:09;;;;;;;;;;;17.30;77.80;;;;;;5040085;27;90023;-45
2023/10/30 04:38:36;;;;;;;;;;;17.30;77.80;;;;;;5041531;27;89449;-45
2023/10/30 04:41:02;;;;;;;;;;;17.30;77.90;;;;;;5042515;27;89611;-45
2023/10/30 04:43:28;;;;;;;;;;;17.30;77.90;;;;;;5039360;27;90471;-45
2023/10/30 04:45:53;;;;;;;;;;;17.30;77.80;;;;;;5039101;27;89178;-44
2023/10/30 04:48:19;;;;;;;;;;;17.30;77.70;;;;;;5030547;27;90162;-44
2023/10/30 04:50:44;;;;;;;;;;;17.30;77.70;;;;;;5045809;27;89067;-44
2023/10/30 04:53:10;;;;;;;;;;;17.30;77.80;;;;;;5041817;27;89278;-45
2023/10/30 04:55:35;;;;;;;;;;;17.20;77.80;;;;;;5036540;27;91084;-45
2023/10/30 04:58:01;;;;;;;;;;;17.30;77.80;;;;;;5037990;27;89900;-44
2023/10/30 05:00:27;;;;;;;;;;;17.20;77.70;;;;;;5038954;27;90898;-45
2023/10/30 05:02:52;;;;;;;;;;;17.30;77.80;;;;;;5038109;27;90272;-44
2023/10/30 05:05:18;;;;;;;;;;;17.20;77.70;;;;;;5043585;27;90429;-44
2023/10/30 05:07:44;;;;;;;;;;;17.20;77.70;;;;;;5040036;27;90481;-44
2023/10/30 05:10:11;;;;;;;;;;;17.20;77.70;;;;;;5041579;27;89617;-44
2023/10/30 05:12:37;;;;;;;;;;;17.20;77.70;;;;;;5031532;27;90724;-44
2023/10/30 05:15:03;;;;;;;;;;;17.30;77.70;;;;;;5038700;27;89518;-44
2023/10/30 05:17:28;;;;;;;;;;;17.20;77.80;;;;;;5039315;27;91220;-45
2023/10/30 05:19:54;;;;;;;;;;;17.20;77.80;;;;;;5038850;27;91371;-44
2023/10/30 05:22:19;;;;;;;;;;;17.30;77.80;;;;;;5039099;27;89740;-45
2023/10/30 05:24:45;;;;;;;;;;;17.20;77.70;;;;;;5033165;27;88795;-45
2023/10/30 05:27:10;;;;;;;;;;;17.20;77.70;;;;;;5033605;27;89777;-44
2023/10/30 05:29:36;;;;;;;;;;;17.20;77.80;;;;;;5041477;27;92805;-45
2023/10/30 05:32:06;;;;;;;;;;;17.20;77.80;;;;;;5036671;27;93049;-45
2023/10/30 05:34:32;;;;;;;;;;;17.20;77.80;;;;;;5038897;27;89183;-44
2023/10/30 05:36:58;;;;;;;;;;;17.20;77.80;;;;;;5035182;27;90266;-44
2023/10/30 05:39:24;;;;;;;;;;;17.20;77.80;;;;;;5032998;27;90379;-45
2023/10/30 05:41:49;;;;;;;;;;;17.20;77.90;;;;;;5040569;27;89678;-45
2023/10/30 05:44:15;;;;;;;;;;;17.20;77.80;;;;;;5044736;27;89415;-44
2023/10/30 05:46:41;;;;;;;;;;;17.20;77.70;;;;;;5035060;27;89258;-45
2023/10/30 05:49:06;;;;;;;;;;;17.20;77.80;;;;;;5037807;27;89540;-45
2023/10/30 05:51:32;;;;;;;;;;;17.20;77.70;;;;;;5038924;27;89464;-45
2023/10/30 05:53:57;;;;;;;;;;;17.20;77.70;;;;;;5043223;27;90158;-44
2023/10/30 05:56:23;;;;;;;;;;;17.20;77.70;;;;;;5019177;27;91810;-45
2023/10/30 05:58:49;;;;;;;;;;;17.20;77.70;;;;;;5036739;27;89990;-44
2023/10/30 06:01:15;;;;;;;;;;;17.20;77.70;;;;;;5039276;27;89662;-44
2023/10/30 06:03:40;;;;;;;;;;;17.20;77.80;;;;;;5034897;27;90119;-44
2023/10/30 06:06:06;;;;;;;;;;;17.20;77.70;;;;;;5038358;27;90309;-44
2023/10/30 06:08:31;;;;;;;;;;;17.20;77.80;;;;;;5038203;27;89752;-44
2023/10/30 06:10:58;;;;;;;;;;;17.20;77.80;;;;;;5038468;27;89659;-45
2023/10/30 06:13:23;;;;;;;;;;;17.10;77.80;;;;;;5038124;27;90747;-44
2023/10/30 06:15:49;;;;;;;;;;;17.10;77.90;;;;;;5037590;27;89588;-44
2023/10/30 06:18:15;;;;;;;;;;;17.10;77.90;;;;;;5033868;27;90178;-44
2023/10/30 06:20:40;;;;;;;;;;;17.10;77.90;;;;;;5031362;27;90579;-45
2023/10/30 06:23:06;;;;;;;;;;;17.10;77.90;;;;;;5037140;27;90463;-45
2023/10/30 06:25:31;;;;;;;;;;;17.10;78.00;;;;;;5036450;27;91005;-44
2023/10/30 06:27:57;;;;;;;;;;;17.10;78.20;;;;;;5033165;27;93225;-45
2023/10/30 06:30:22;;;;;;;;;;;17.10;78.30;;;;;;5032796;27;91957;-45
2023/10/30 06:32:48;;;;;;;;;;;17.10;78.60;;;;;;5036106;27;89810;-43
2023/10/30 06:35:13;;;;;;;;;;;17.10;78.40;;;;;;5037770;27;90681;-44
2023/10/30 06:37:39;;;;;;;;;;;17.20;78.60;;;;;;5032912;27;89364;-45
2023/10/30 06:40:04;;;;;;;;;;;17.10;78.80;;;;;;5037491;27;89510;-45
2023/10/30 06:42:30;;;;;;;;;;;17.10;79.20;;;;;;5038412;27;89008;-44
2023/10/30 06:44:55;;;;;;;;;;;17.10;79.20;;;;;;5039825;27;94038;-45
2023/10/30 06:47:21;;;;;;;;;;;17.10;79.30;;;;;;5030730;27;90710;-44
2023/10/30 06:49:46;;;;;;;;;;;17.10;79.10;;;;;;5038027;27;90325;-44
2023/10/30 06:52:12;;;;;;;;;;;17.10;79.60;;;;;;5041849;27;89523;-46
2023/10/30 06:54:38;;;;;;;;;;;17.20;79.40;;;;;;5039479;27;90256;-45
2023/10/30 06:57:03;;;;;;;;;;;17.30;79.40;;;;;;5031023;27;90487;-45
2023/10/30 06:59:29;;;;;;;;;;;17.30;79.40;;;;;;5037569;27;90255;-44
2023/10/30 07:01:54;;;;;;;;;;;17.30;79.40;;;;;;5041015;27;88189;-45
2023/10/30 07:04:20;;;;;;;;;;;17.30;79.70;;;;;;5033925;27;90410;-45
2023/10/30 07:06:46;;;;;;;;;;;17.30;80.30;;;;;;5028053;27;96090;-44
2023/10/30 07:09:12;;;;;;;;;;;17.40;80.70;;;;;;5040365;27;90309;-45
2023/10/30 07:11:39;;;;;;;;;;;17.40;80.60;;;;;;5039555;27;90082;-45
2023/10/30 07:14:05;;;;;;;;;;;17.40;81.00;;;;;;5040397;27;89480;-46
2023/10/30 07:16:31;;;;;;;;;;;17.40;81.00;;;;;;5042714;27;89563;-45
2023/10/30 07:18:56;;;;;;;;;;;17.40;81.30;;;;;;5042176;27;90886;-44
2023/10/30 07:21:23;;;;;;;;;;;17.40;81.30;;;;;;5043520;27;90039;-45
2023/10/30 07:23:48;;;;;;;;;;;17.40;81.10;;;;;;5049477;27;90424;-45
2023/10/30 07:26:14;;;;;;;;;;;17.40;81.20;;;;;;5040075;27;89058;-45
2023/10/30 07:28:39;;;;;;;;;;;17.40;81.60;;;;;;5036953;27;89555;-45
2023/10/30 07:31:05;;;;;;;;;;;17.40;81.20;;;;;;5036449;27;90087;-45
2023/10/30 07:33:30;;;;;;;;;;;17.40;80.60;;;;;;5039936;27;90962;-45
2023/10/30 07:36:00;;;;;;;;;;;17.40;80.70;;;;;;5046119;27;90579;-45
2023/10/30 07:38:27;;;;;;;;;;;17.40;80.80;;;;;;5043331;27;89338;-45
2023/10/30 07:40:52;;;;;;;;;;;17.40;81.00;;;;;;5043463;27;90943;-46
2023/10/30 07:43:18;;;;;;;;;;;17.40;80.90;;;;;;5038097;27;89117;-45
2023/10/30 07:45:43;;;;;;;;;;;17.40;81.20;;;;;;5031254;27;90374;-46
2023/10/30 07:48:09;;;;;;;;;;;17.40;81.30;;;;;;5034653;27;89284;-46
2023/10/30 07:50:38;;;;;;;;;;;17.40;82.10;;;;;;5037847;27;90090;-46
2023/10/30 07:53:03;;;;;;;;;;;17.40;81.50;;;;;;5024422;27;90962;-45
2023/10/30 07:55:29;;;;;;;;;;;17.40;81.60;;;;;;5032548;27;90171;-46
2023/10/30 07:57:54;;;;;;;;;;;17.40;81.50;;;;;;5038387;27;90496;-46
2023/10/30 08:00:21;;;;;;;;;;;17.40;81.20;;;;;;5048115;27;90123;-45
2023/10/30 08:02:46;;;;;;;;;;;17.40;81.00;;;;;;5039355;27;90096;-46
2023/10/30 08:05:15;;;;;;;;;;;17.40;81.00;;;;;;5040756;27;89383;-46
2023/10/30 08:07:41;;;;;;;;;;;17.40;81.00;;;;;;5043344;27;89149;-46
2023/10/30 08:10:06;;;;;;;;;;;17.40;80.90;;;;;;5044125;27;90938;-46
2023/10/30 08:12:32;;;;;;;;;;;17.40;80.70;;;;;;5039921;27;89673;-46
2023/10/30 08:14:59;;;;;;;;;;;17.40;80.50;;;;;;5049599;27;88551;-46
2023/10/30 08:17:25;;;;;;;;;;;17.40;80.40;;;;;;5049384;27;89514;-46
2023/10/30 08:19:50;;;;;;;;;;;17.40;80.30;;;;;;5042498;27;89318;-46
2023/10/30 08:22:16;;;;;;;;;;;17.40;80.20;;;;;;5045002;27;90023;-46
2023/10/30 08:24:41;;;;;;;;;;;17.40;80.20;;;;;;5041804;27;90704;-46
2023/10/30 08:27:07;;;;;;;;;;;17.40;80.00;;;;;;5046401;27;90472;-46
2023/10/30 08:29:32;;;;;;;;;;;17.40;80.00;;;;;;5043424;27;89286;-46
2023/10/30 08:31:58;;;;;;;;;;;17.40;80.00;;;;;;5036009;27;89475;-46
2023/10/30 08:34:23;;;;;;;;;;;17.40;79.90;;;;;;5039577;27;89569;-46
2023/10/30 08:36:49;;;;;;;;;;;17.40;80.00;;;;;;5041051;27;93293;-46
2023/10/30 08:39:14;;;;;;;;;;;17.40;79.80;;;;;;5045521;27;88509;-46
2023/10/30 08:41:40;;;;;;;;;;;17.40;79.80;;;;;;5046505;27;90110;-46
2023/10/30 08:44:06;;;;;;;;;;;17.40;79.70;;;;;;5037628;27;89358;-46
2023/10/30 08:46:33;;;;;;;;;;;17.40;79.70;;;;;;5044061;27;90375;-46
2023/10/30 08:48:59;;;;;;;;;;;17.40;79.60;;;;;;5044217;27;89864;-45
2023/10/30 08:51:24;;;;;;;;;;;17.40;79.50;;;;;;5041574;27;89486;-45
2023/10/30 08:53:50;;;;;;;;;;;17.40;79.50;;;;;;5044375;27;89540;-46
2023/10/30 08:56:16;;;;;;;;;;;17.40;79.40;;;;;;5041440;27;89559;-45
2023/10/30 08:58:42;;;;;;;;;;;17.40;79.50;;;;;;5039413;27;89471;-45
2023/10/30 09:01:07;;;;;;;;;;;17.40;79.30;;;;;;5040675;27;90682;-45
2023/10/30 09:03:33;;;;;;;;;;;17.40;79.20;;;;;;5047456;27;89349;-45
2023/10/30 09:05:59;;;;;;;;;;;17.40;79.30;;;;;;5046464;27;89848;-45
2023/10/30 09:08:25;;;;;;;;;;;17.40;79.30;;;;;;5043160;27;90897;-45
2023/10/30 09:10:51;;;;;;;;;;;17.40;79.20;;;;;;5036315;27;96213;-45
2023/10/30 09:13:17;;;;;;;;;;;17.40;79.20;;;;;;5041127;27;89514;-46
2023/10/30 09:15:42;;;;;;;;;;;17.40;79.20;;;;;;5044516;27;89353;-45
2023/10/30 09:18:08;;;;;;;;;;;17.40;79.10;;;;;;5039223;27;89470;-45
2023/10/30 09:20:34;;;;;;;;;;;17.40;79.10;;;;;;5046357;27;89035;-45
2023/10/30 09:22:59;;;;;;;;;;;17.40;79.20;;;;;;5042880;27;89611;-45
2023/10/30 09:25:25;;;;;;;;;;;17.40;79.10;;;;;;5043521;27;89616;-45
2023/10/30 09:27:50;;;;;;;;;;;17.40;79.00;;;;;;5046611;27;89746;-45
2023/10/30 09:30:16;;;;;;;;;;;17.40;79.70;;;;;;5044179;27;90052;-45
2023/10/30 09:32:42;;;;;;;;;;;17.40;79.00;;;;;;5038558;27;88906;-45
2023/10/30 09:35:08;;;;;;;;;;;17.40;78.90;;;;;;5039894;27;91460;-45
2023/10/30 09:37:33;;;;;;;;;;;17.40;78.90;;;;;;5036968;27;94343;-46
2023/10/30 09:40:00;;;;;;;;;;;17.40;78.80;;;;;;5035752;27;89510;-45
2023/10/30 09:42:25;;;;;;;;;;;17.40;78.80;;;;;;5028013;27;92060;-45
2023/10/30 09:44:51;;;;;;;;;;;17.40;78.70;;;;;;5036399;27;90085;-45
2023/10/30 09:47:17;;;;;;;;;;;17.40;78.70;;;;;;5037875;27;90347;-45
2023/10/30 09:49:43;;;;;;;;;;;17.40;78.80;;;;;;5035454;27;94539;-45
2023/10/30 09:52:09;;;;;;;;;;;17.50;79.00;;;;;;5032503;27;88744;-45
2023/10/30 09:54:35;;;;;;;;;;;17.40;79.00;;;;;;5036243;27;89549;-45
2023/10/30 09:57:03;;;;;;;;;;;17.40;79.20;;;;;;5033044;27;89547;-45
2023/10/30 09:59:32;;;;;;;;;;;17.50;79.50;;;;;;5030021;27;91205;-44
2023/10/30 10:01:59;;;;;;;;;;;17.50;79.50;;;;;;5034736;27;90860;-45
2023/10/30 10:04:24;;;;;;;;;;;17.50;80.00;;;;;;5034807;27;89483;-45
2023/10/30 10:06:53;;;;;;;;;;;17.50;80.10;;;;;;5030117;27;89458;-45
2023/10/30 10:09:18;;;;;;;;;;;17.50;80.60;;;;;;5029924;27;89736;-45
2023/10/30 10:11:43;;;;;;;;;;;17.50;80.60;;;;;;5033646;27;89482;-45
2023/10/30 10:14:09;;;;;;;;;;;17.60;80.90;;;;;;5033473;27;89427;-45
2023/10/30 10:16:35;;;;;;;;;;;17.50;81.00;;;;;;5037515;27;88965;-46
2023/10/30 10:19:17;;;;;;;;;;;17.60;82.50;;;;;;5030935;27;89500;-44
2023/10/30 10:21:48;;;;;;;;;;;17.60;83.60;;;;;;5033798;27;89552;-46
2023/10/30 10:24:25;;;;;;;;;;;17.60;85.20;;;;;;5038459;27;90295;-46
2023/10/30 10:26:51;;;;;;;;;;;17.60;86.50;;;;;;5039560;27;88688;-46
2023/10/30 10:29:21;;;;;;;;;;;17.60;88.00;;;;;;5028965;27;89568;-46
2023/10/30 10:31:47;;;;;;;;;;;17.60;89.70;;;;;;5033617;27;91011;-45
2023/10/30 10:34:13;;;;;;;;;;;17.70;90.10;;;;;;5032049;27;89469;-46
2023/10/30 10:36:40;;;;;;;;;;;17.70;90.90;;;;;;5035126;27;88891;-45
2023/10/30 10:39:05;;;;;;;;;;;17.70;91.40;;;;;;5032799;27;91218;-45
2023/10/30 10:41:31;;;;;;;;;;;17.60;91.50;;;;;;5033669;27;88469;-44
2023/10/30 10:43:59;;;;;;;;;;;17.70;92.40;;;;;;5031061;27;90123;-45
2023/10/30 10:46:24;;;;;;;;;;;17.70;92.30;;;;;;5025054;27;89897;-44
2023/10/30 10:48:50;;;;;;;;;;;17.70;91.90;;;;;;5035676;27;91019;-45
2023/10/30 10:51:21;;;;;;;;;;;17.70;91.40;;;;;;5033597;27;90586;-46
2023/10/30 10:53:48;;;;;;;;;;;17.70;91.20;;;;;;5035161;27;90277;-47
2023/10/30 10:56:16;;;;;;;;;;;17.70;90.50;;;;;;5036580;27;90088;-44
2023/10/30 10:58:55;;;;;;;;;;;17.70;90.70;;;;;;5039979;27;89427;-45
2023/10/30 11:01:22;;;;;;;;;;;17.70;90.20;;;;;;5042068;27;89444;-44
2023/10/30 11:03:48;;;;;;;;;;;17.60;88.90;;;;;;5033229;27;90160;-45
2023/10/30 11:06:14;;;;;;;;;;;17.70;90.10;;;;;;5037358;27;89077;-44
2023/10/30 11:08:59;;;;;;;;;;;17.70;89.60;;;;;;5039841;27;90046;-46
2023/10/30 11:11:31;;;;;;;;;;;17.70;89.00;;;;;;5036434;27;89052;-46
2023/10/30 11:14:00;;;;;;;;;;;17.70;88.90;;;;;;5041412;27;91078;-46
2023/10/30 11:16:28;;;;;;;;;;;17.70;88.80;;;;;;5042462;27;90021;-46
2023/10/30 11:18:58;;;;;;;;;;;17.70;88.70;;;;;;5042223;27;89638;-46
2023/10/30 11:21:25;;;;;;;;;;;17.70;88.50;;;;;;5038678;27;89758;-46
2023/10/30 11:23:53;;;;;;;;;;;17.70;88.40;;;;;;5036869;27;89388;-46
2023/10/30 11:26:30;;;;;;;;;;;17.70;88.20;;;;;;5039879;27;91019;-47
2023/10/30 11:28:57;;;;;;;;;;;17.70;87.90;;;;;;5037976;27;89346;-46
2023/10/30 11:31:22;;;;;;;;;;;17.70;87.80;;;;;;5035636;27;88347;-47
2023/10/30 11:33:48;;;;;;;;;;;17.70;87.50;;;;;;5036483;27;90363;-45
2023/10/30 11:36:20;;;;;;;;;;;17.70;87.30;;;;;;5037997;27;89682;-38
2023/10/30 11:38:54;;;;;;;;;;;17.70;87.00;;;;;;5033496;27;90641;-37
2023/10/30 11:41:20;;;;;;;;;;;17.80;86.80;;;;;;5031632;27;89627;-37
2023/10/30 11:43:45;;;;;;;;;;;17.90;86.30;;;;;;5031120;27;89694;-38
2023/10/30 11:46:16;;;;;;;;;;;18.00;86.60;;;;;;5035610;27;89823;-38
2023/10/30 11:48:41;;;;;;;;;;;18.00;86.80;;;;;;5021665;27;91672;-37
2023/10/30 11:51:07;;;;;;;;;;;18.10;87.10;;;;;;5034722;27;89176;-39
2023/10/30 11:53:33;;;;;;;;;;;18.10;87.40;;;;;;5036139;27;93603;-37
2023/10/30 11:55:59;;;;;;;;;;;18.10;87.40;;;;;;5037762;27;89645;-38
2023/10/30 11:58:24;;;;;;;;;;;18.20;87.50;;;;;;5031502;27;89925;-38
2023/10/30 12:00:50;;;;;;;;;;;18.20;87.80;;;;;;5034933;27;89994;-37
2023/10/30 12:03:16;;;;;;;;;;;18.30;87.70;;;;;;5040176;27;90186;-37
2023/10/30 12:05:42;;;;;;;;;;;18.30;87.80;;;;;;5040744;27;89546;-37
2023/10/30 12:08:09;;;;;;;;;;;18.30;87.40;;;;;;5036420;27;89716;-37
2023/10/30 12:10:35;;;;;;;;;;;18.30;87.20;;;;;;5034521;27;89442;-37
2023/10/30 12:13:00;;;;;;;;;;;18.40;87.10;;;;;;5033530;27;89579;-38
2023/10/30 12:15:26;;;;;;;;;;;18.40;87.20;;;;;;5036824;27;89474;-37
2023/10/30 12:17:52;;;;;;;;;;;18.40;87.30;;;;;;5039196;27;89218;-37
2023/10/30 12:20:17;;;;;;;;;;;18.40;87.40;;;;;;5038377;27;88939;-36
2023/10/30 12:22:43;;;;;;;;;;;18.50;87.60;;;;;;5034441;27;90369;-36
2023/10/30 12:25:14;;;;;;;;;;;18.50;88.00;;;;;;5039572;27;89937;-36
2023/10/30 12:27:40;;;;;;;;;;;18.50;87.80;;;;;;5033715;27;91077;-36
2023/10/30 12:30:16;;;;;;;;;;;18.50;87.90;;;;;;5036984;27;89907;-36
2023/10/30 12:32:42;;;;;;;;;;;18.60;88.10;;;;;;5037673;27;89567;-36
2023/10/30 12:35:11;;;;;;;;;;;18.60;88.20;;;;;;5035860;27;90048;-36
2023/10/30 12:37:37;;;;;;;;;;;18.70;88.80;;;;;;5035842;27;90132;-36
2023/10/30 12:40:04;;;;;;;;;;;18.70;88.40;;;;;;5042143;27;90449;-37
2023/10/30 12:42:31;;;;;;;;;;;18.70;88.20;;;;;;5035950;27;89576;-36
2023/10/30 12:44:57;;;;;;;;;;;18.70;88.20;;;;;;5039648;27;88950;-37
2023/10/30 12:47:22;;;;;;;;;;;18.70;88.40;;;;;;5041648;27;91855;-36
2023/10/30 12:49:48;;;;;;;;;;;18.70;88.30;;;;;;5030721;27;91106;-36
2023/10/30 12:52:13;;;;;;;;;;;18.70;89.00;;;;;;5036641;27;91494;-36
2023/10/30 12:54:39;;;;;;;;;;;18.70;89.20;;;;;;5037054;27;89689;-36
2023/10/30 12:57:04;;;;;;;;;;;18.70;90.10;;;;;;5034709;27;89541;-36
2023/10/30 12:59:30;;;;;;;;;;;18.70;89.10;;;;;;5039613;27;89502;-36
2023/10/30 13:01:55;;;;;;;;;;;18.70;88.20;;;;;;5033232;27;89998;-36
2023/10/30 13:04:21;;;;;;;;;;;18.80;87.60;;;;;;5037651;27;89542;-36
2023/10/30 13:06:46;;;;;;;;;;;18.90;88.60;;;;;;5042859;27;90907;-37
2023/10/30 13:09:12;;;;;;;;;;;19.00;90.00;;;;;;5039301;27;89426;-36
2023/10/30 13:11:38;;;;;;;;;;;19.00;90.00;;;;;;5032800;27;90773;-36
2023/10/30 13:14:03;;;;;;;;;;;19.20;88.70;;;;;;5039664;27;89838;-36
2023/10/30 13:16:29;;;;;;;;;;;19.20;88.00;;;;;;5040762;27;91326;-36
2023/10/30 13:18:54;;;;;;;;;;;19.40;88.10;;;;;;5040365;27;90623;-37
2023/10/30 13:21:20;;;;;;;;;;;19.50;89.10;;;;;;5033500;27;89289;-36
2023/10/30 13:23:45;;;;;;;;;;;19.50;88.50;;;;;;5034395;27;89790;-36
2023/10/30 13:26:11;;;;;;;;;;;19.50;88.10;;;;;;5043903;27;89588;-36
2023/10/30 13:28:36;;;;;;;;;;;19.60;88.30;;;;;;5034758;27;89953;-38
2023/10/30 13:31:02;;;;;;;;;;;19.60;88.40;;;;;;5039512;27;89669;-36
2023/10/30 13:33:28;;;;;;;;;;;19.70;90.20;;;;;;5036223;27;89066;-36
2023/10/30 13:35:53;;;;;;;;;;;19.70;90.40;;;;;;5042584;27;89744;-36
2023/10/30 13:38:19;;;;;;;;;;;19.70;91.90;;;;;;5042893;27;90092;-36
2023/10/30 13:40:44;;;;;;;;;;;19.80;93.10;;;;;;5043586;27;90754;-36
2023/10/30 13:43:10;;;;;;;;;;;19.90;93.70;;;;;;5035122;27;90115;-36
2023/10/30 13:45:35;;;;;;;;;;;19.90;94.10;;;;;;5035154;27;90365;-36
2023/10/30 13:48:04;;;;;;;;;;;19.90;94.00;;;;;;5036444;27;89646;-36
2023/10/30 13:50:30;;;;;;;;;;;19.80;94.10;;;;;;5039589;27;89359;-36
2023/10/30 13:52:55;;;;;;;;;;;19.80;94.00;;;;;;5041956;27;89658;-36
2023/10/30 13:55:21;;;;;;;;;;;19.80;94.00;;;;;;5037947;27;90369;-36
2023/10/30 13:57:46;;;;;;;;;;;19.80;93.80;;;;;;5039501;27;89225;-36
2023/10/30 14:00:12;;;;;;;;;;;19.80;93.50;;;;;;5035076;27;90353;-36
2023/10/30 14:02:38;;;;;;;;;;;19.80;93.00;;;;;;5035528;27;89872;-36
2023/10/30 14:05:03;;;;;;;;;;;19.80;93.00;;;;;;5030903;27;90470;-36
2023/10/30 14:07:29;;;;;;;;;;;19.70;92.60;;;;;;5035478;27;90090;-36
2023/10/30 14:09:55;;;;;;;;;;;19.70;92.40;;;;;;5039400;27;88994;-36